Time;durP1;ratioP1;P1;durP2;ratioP2;P2;SDS_P1;SDS_P2;PMS_P1;PMS_P2;Temp;Humidity;BMP_temperature;BMP_pressure;BME280_temperature;BME280_humidity;BME280_pressure;Samples;Min_cycle;Max_cycle;Signal;HPM_P1;HPM_P2
2023/04/22 00:02:08;;;;;;;;;;;;;;;5.90;100.00;100809.03;5228463;28;20408;-74
2023/04/22 00:04:40;;;;;;;;;;;;;;;5.87;100.00;100799.50;5227185;28;20370;-74
2023/04/22 00:07:11;;;;;;;;;;;;;;;5.88;100.00;100800.34;5209132;28;20385;-74
2023/04/22 00:09:41;;;;;;;;;;;;;;;5.89;100.00;100810.84;5209270;28;20274;-74
2023/04/22 00:12:12;;;;;;;;;;;;;;;5.89;100.00;100794.88;5227020;28;19920;-74
2023/04/22 00:14:42;;;;;;;;;;;;;;;5.93;100.00;100800.81;5226942;28;20362;-74
2023/04/22 00:17:13;;;;;;;;;;;;;;;5.96;100.00;100798.69;5226306;28;20396;-74
2023/04/22 00:19:43;;;;;;;;;;;;;;;5.97;100.00;100794.19;5227017;28;19958;-74
2023/04/22 00:22:13;;;;;;;;;;;;;;;6.04;100.00;100791.84;5226754;28;19958;-74
2023/04/22 00:24:44;;;;;;;;;;;;;;;6.07;100.00;100792.41;5227095;28;19915;-74
2023/04/22 00:27:14;;;;;;;;;;;;;;;6.09;100.00;100800.28;5226002;28;19908;-74
2023/04/22 00:29:44;;;;;;;;;;;;;;;6.09;100.00;100795.78;5226872;28;20266;-74
2023/04/22 00:32:15;;;;;;;;;;;;;;;6.10;100.00;100794.78;5226609;28;19999;-74
2023/04/22 00:34:45;;;;;;;;;;;;;;;6.11;100.00;100792.97;5226981;28;19909;-74
2023/04/22 00:37:15;;;;;;;;;;;;;;;6.11;100.00;100787.63;5226083;28;19913;-74
2023/04/22 00:39:46;;;;;;;;;;;;;;;6.10;100.00;100788.63;5226164;28;19955;-74
2023/04/22 00:42:16;;;;;;;;;;;;;;;6.09;100.00;100782.47;5226356;28;19924;-74
2023/04/22 00:44:47;;;;;;;;;;;;;;;6.13;100.00;100785.69;5225657;28;19908;-74
2023/04/22 00:47:18;;;;;;;;;;;;;;;6.14;100.00;100790.03;5226181;28;19909;-74
2023/04/22 00:49:49;;;;;;;;;;;;;;;6.15;100.00;100784.56;5226348;28;20491;-74
2023/04/22 00:52:19;;;;;;;;;;;;;;;6.15;100.00;100786.38;5225897;28;19999;-74
2023/04/22 00:54:50;;;;;;;;;;;;;;;6.12;100.00;100774.19;5208835;28;19995;-74
2023/04/22 00:57:20;;;;;;;;;;;;;;;6.09;100.00;100782.47;5225774;28;19913;-74
2023/04/22 00:59:51;;;;;;;;;;;;;;;6.06;100.00;100784.56;5225921;28;20487;-74
2023/04/22 01:02:22;;;;;;;;;;;;;;;6.01;100.00;100784.97;5226395;28;19909;-74
2023/04/22 01:04:53;;;;;;;;;;;;;;;5.94;100.00;100776.69;5225923;28;19999;-74
2023/04/22 01:07:24;;;;;;;;;;;;;;;5.91;100.00;100784.94;5225988;28;19909;-74
2023/04/22 01:09:55;;;;;;;;;;;;;;;5.89;100.00;100784.22;5226491;28;19915;-74
2023/04/22 01:12:26;;;;;;;;;;;;;;;5.87;100.00;100786.19;5225839;28;20012;-74
2023/04/22 01:14:57;;;;;;;;;;;;;;;5.86;100.00;100779.16;5208368;28;20003;-74
2023/04/22 01:17:28;;;;;;;;;;;;;;;5.85;100.00;100776.66;5225130;28;19956;-74
2023/04/22 01:19:58;;;;;;;;;;;;;;;5.82;100.00;100774.25;5225991;28;19909;-74
2023/04/22 01:22:32;;;;;;;;;;;;;;;5.79;100.00;100778.03;5226061;28;19963;-74
2023/04/22 01:25:03;;;;;;;;;;;;;;;5.77;100.00;100777.31;5226129;28;19954;-74
2023/04/22 01:27:34;;;;;;;;;;;;;;;5.75;100.00;100773.97;5225483;28;19908;-74
2023/04/22 01:30:06;;;;;;;;;;;;;;;5.78;100.00;100772.88;5225212;28;20473;-74
2023/04/22 01:32:38;;;;;;;;;;;;;;;5.79;100.00;100771.88;5226019;28;19909;-74
2023/04/22 01:35:09;;;;;;;;;;;;;;;5.80;100.00;100768.22;5226226;28;19908;-74
2023/04/22 01:37:39;;;;;;;;;;;;;;;5.80;100.00;100771.72;5225539;28;19917;-74
2023/04/22 01:40:10;;;;;;;;;;;;;;;5.81;100.00;100769.91;5207369;28;19969;-74
2023/04/22 01:42:40;;;;;;;;;;;;;;;5.80;100.00;100769.06;5225783;28;20004;-74
2023/04/22 01:45:12;;;;;;;;;;;;;;;5.80;100.00;100770.88;5225478;28;19932;-74
2023/04/22 01:47:43;;;;;;;;;;;;;;;5.79;100.00;100761.22;5225630;28;19909;-74
2023/04/22 01:50:14;;;;;;;;;;;;;;;5.78;100.00;100770.19;5225066;28;19934;-74
2023/04/22 01:52:44;;;;;;;;;;;;;;;5.76;100.00;100772.13;5207086;28;19916;-74
2023/04/22 01:55:15;;;;;;;;;;;;;;;5.76;100.00;100770.31;5225154;28;20396;-74
2023/04/22 01:57:45;;;;;;;;;;;;;;;5.74;100.00;100766.13;5207342;28;19912;-74
2023/04/22 02:00:23;;;;;;;;;;;;;;;5.75;100.00;100763.31;5225143;28;19909;-74
2023/04/22 02:02:53;;;;;;;;;;;;;;;5.75;100.00;100765.97;5225219;28;19987;-74
2023/04/22 02:05:24;;;;;;;;;;;;;;;5.76;100.00;100757.00;5224355;28;19919;-74
2023/04/22 02:08:02;;;;;;;;;;;;;;;5.78;100.00;100765.72;5223313;28;19909;-74
2023/04/22 02:10:33;;;;;;;;;;;;;;;5.78;100.00;100760.38;5223809;28;19915;-74
2023/04/22 02:13:03;;;;;;;;;;;;;;;5.78;100.00;100763.06;5224685;28;19918;-74
2023/04/22 02:15:34;;;;;;;;;;;;;;;5.76;100.00;100767.66;5223941;28;19909;-74
2023/04/22 02:18:05;;;;;;;;;;;;;;;5.69;100.00;100764.72;5205119;28;20369;-75
2023/04/22 02:20:35;;;;;;;;;;;;;;;5.61;100.00;100767.19;5223662;28;19909;-74
2023/04/22 02:23:06;;;;;;;;;;;;;;;5.59;100.00;100769.16;5224383;28;20452;-74
2023/04/22 02:25:37;;;;;;;;;;;;;;;5.59;100.00;100763.00;5223934;28;19909;-74
2023/04/22 02:28:07;;;;;;;;;;;;;;;5.60;100.00;100764.69;5222701;28;19916;-74
2023/04/22 02:30:38;;;;;;;;;;;;;;;5.63;100.00;100775.06;5223268;28;19909;-74
2023/04/22 02:33:08;;;;;;;;;;;;;;;5.65;100.00;100767.78;5224165;28;19909;-74
2023/04/22 02:35:38;;;;;;;;;;;;;;;5.68;100.00;100770.19;5206196;28;19915;-74
2023/04/22 02:38:09;;;;;;;;;;;;;;;5.66;100.00;100759.66;5222713;28;19919;-74
2023/04/22 02:40:39;;;;;;;;;;;;;;;5.70;100.00;100771.72;5221163;28;19916;-74
2023/04/22 02:43:10;;;;;;;;;;;;;;;5.71;100.00;100761.91;5205620;28;20003;-74
2023/04/22 02:45:40;;;;;;;;;;;;;;;5.70;100.00;100760.22;5223941;28;19908;-74
2023/04/22 02:48:11;;;;;;;;;;;;;;;5.68;100.00;100748.88;5222575;28;19916;-74
2023/04/22 02:50:41;;;;;;;;;;;;;;;5.66;100.00;100750.81;5223550;28;19909;-74
2023/04/22 02:53:11;;;;;;;;;;;;;;;5.69;100.00;100748.75;5205224;28;19991;-74
2023/04/22 02:55:42;;;;;;;;;;;;;;;5.71;100.00;100738.78;5224057;28;19909;-74
2023/04/22 02:58:12;;;;;;;;;;;;;;;5.72;100.00;100728.97;5204278;28;20312;-74
2023/04/22 03:00:43;;;;;;;;;;;;;;;5.73;100.00;100736.00;5222827;28;19913;-74
2023/04/22 03:03:13;;;;;;;;;;;;;;;5.75;100.00;100728.72;5225164;28;19928;-74
2023/04/22 03:05:44;;;;;;;;;;;;;;;5.77;100.00;100726.75;5225061;28;19991;-74
2023/04/22 03:08:14;;;;;;;;;;;;;;;5.80;100.00;100731.78;5222202;28;19908;-74
2023/04/22 03:10:44;;;;;;;;;;;;;;;5.81;100.00;100716.66;5223268;28;19908;-74
2023/04/22 03:13:15;;;;;;;;;;;;;;;5.80;100.00;100720.31;5225497;28;19913;-74
2023/04/22 03:15:45;;;;;;;;;;;;;;;5.81;100.00;100709.50;5223346;28;19974;-75
2023/04/22 03:18:16;;;;;;;;;;;;;;;5.81;100.00;100709.50;5221855;28;19987;-74
2023/04/22 03:20:46;;;;;;;;;;;;;;;5.81;100.00;100706.84;5222768;28;19909;-74
2023/04/22 03:23:16;;;;;;;;;;;;;;;5.81;100.00;100703.34;5205797;28;19908;-74
2023/04/22 03:25:47;;;;;;;;;;;;;;;5.83;100.00;100698.75;5222815;28;19916;-74
2023/04/22 03:28:17;;;;;;;;;;;;;;;5.84;100.00;100701.25;5222266;28;20434;-74
2023/04/22 03:30:48;;;;;;;;;;;;;;;5.85;100.00;100692.28;5203875;28;20441;-74
2023/04/22 03:33:18;;;;;;;;;;;;;;;5.86;100.00;100691.31;5223110;28;20381;-74
2023/04/22 03:35:48;;;;;;;;;;;;;;;5.90;100.00;100686.53;5223057;28;20428;-74
2023/04/22 03:38:19;;;;;;;;;;;;;;;5.90;100.00;100683.88;5204153;28;20126;-74
2023/04/22 03:40:49;;;;;;;;;;;;;;;5.88;100.00;100686.69;5222450;28;19962;-74
2023/04/22 03:43:19;;;;;;;;;;;;;;;5.84;100.00;100689.78;5222503;28;19913;-74
2023/04/22 03:45:50;;;;;;;;;;;;;;;5.81;100.00;100685.56;5222784;28;20000;-74
2023/04/22 03:48:20;;;;;;;;;;;;;;;5.75;100.00;100683.44;5222372;28;20440;-75
2023/04/22 03:50:50;;;;;;;;;;;;;;;5.72;100.00;100681.94;5222615;28;19940;-74
2023/04/22 03:53:21;;;;;;;;;;;;;;;5.74;100.00;100671.13;5222917;28;19916;-74
2023/04/22 03:55:51;;;;;;;;;;;;;;;5.77;100.00;100672.66;5222779;28;19916;-75
2023/04/22 03:58:22;;;;;;;;;;;;;;;5.79;100.00;100665.41;5221724;28;19952;-75
2023/04/22 04:00:52;;;;;;;;;;;;;;;5.82;100.00;100670.41;5221459;28;20559;-74
2023/04/22 04:03:22;;;;;;;;;;;;;;;5.80;100.00;100670.56;5223014;28;20000;-75
2023/04/22 04:05:53;;;;;;;;;;;;;;;5.80;100.00;100672.38;5222576;28;20369;-75
2023/04/22 04:08:23;;;;;;;;;;;;;;;5.76;100.00;100673.66;5221712;28;19919;-75
2023/04/22 04:10:53;;;;;;;;;;;;;;;5.74;100.00;100678.28;5222007;28;19909;-75
2023/04/22 04:13:24;;;;;;;;;;;;;;;5.74;100.00;100672.97;5205348;28;19912;-74
2023/04/22 04:15:54;;;;;;;;;;;;;;;5.73;100.00;100680.09;5222480;28;19991;-75
2023/04/22 04:18:25;;;;;;;;;;;;;;;5.73;100.00;100672.13;5222024;28;20293;-74
2023/04/22 04:20:56;;;;;;;;;;;;;;;5.75;100.00;100674.63;5225793;28;19909;-75
2023/04/22 04:23:26;;;;;;;;;;;;;;;5.75;100.00;100672.81;5226850;28;19909;-75
2023/04/22 04:25:57;;;;;;;;;;;;;;;5.77;100.00;100660.19;5226170;28;19999;-74
2023/04/22 04:28:31;;;;;;;;;;;;;;;5.81;100.00;100669.59;5225194;28;20385;-75
2023/04/22 04:31:01;;;;;;;;;;;;;;;5.79;100.00;100673.38;5225666;28;19915;-74
2023/04/22 04:33:57;;;;;;;;;;;;;;;5.79;100.00;100674.22;5208776;28;19909;-75
2023/04/22 04:36:27;;;;;;;;;;;;;;;5.78;100.00;100677.88;5149180;28;19960;-74
2023/04/22 04:38:58;;;;;;;;;;;;;;;5.79;100.00;100679.53;5142414;28;19914;-74
2023/04/22 04:41:30;;;;;;;;;;;;;;;5.81;100.00;100671.41;5194252;28;19909;-75
2023/04/22 04:44:01;;;;;;;;;;;;;;;5.81;100.00;100676.72;5208836;28;19913;-75
2023/04/22 04:46:33;;;;;;;;;;;;;;;5.84;100.00;100673.81;5224781;28;20392;-75
2023/04/22 04:49:03;;;;;;;;;;;;;;;5.88;100.00;100675.22;5226068;28;20009;-74
2023/04/22 04:51:34;;;;;;;;;;;;;;;5.92;100.00;100666.84;5225301;28;19954;-74
2023/04/22 04:54:04;;;;;;;;;;;;;;;5.96;100.00;100670.03;5226100;28;20351;-74
2023/04/22 04:56:35;;;;;;;;;;;;;;;6.00;100.00;100667.94;5206548;28;20142;-75
2023/04/22 04:59:05;;;;;;;;;;;;;;;6.07;100.00;100667.22;5225361;28;19909;-74
2023/04/22 05:01:36;;;;;;;;;;;;;;;6.11;100.00;100673.94;5225809;28;20046;-75
2023/04/22 05:04:06;;;;;;;;;;;;;;;6.17;100.00;100667.22;5208083;28;19952;-75
2023/04/22 05:06:36;;;;;;;;;;;;;;;6.20;100.00;100658.94;5224411;28;19920;-75
2023/04/22 05:09:07;;;;;;;;;;;;;;;6.23;100.00;100659.50;5225555;28;19909;-75
2023/04/22 05:11:37;;;;;;;;;;;;;;;6.26;100.00;100661.03;5225691;28;20011;-74
2023/04/22 05:14:07;;;;;;;;;;;;;;;6.29;100.00;100655.44;5225918;28;19921;-74
2023/04/22 05:16:38;;;;;;;;;;;;;;;6.33;100.00;100650.66;5224854;28;20398;-74
2023/04/22 05:19:08;;;;;;;;;;;;;;;6.35;100.00;100646.03;5225243;28;19966;-74
2023/04/22 05:21:39;;;;;;;;;;;;;;;6.38;100.00;100651.06;5225122;28;19909;-74
2023/04/22 05:24:09;;;;;;;;;;;;;;;6.42;100.00;100637.28;5207631;28;19936;-74
2023/04/22 05:26:40;;;;;;;;;;;;;;;6.50;100.00;100647.25;5224279;28;19909;-74
2023/04/22 05:29:10;;;;;;;;;;;;;;;6.57;100.00;100653.66;5206696;28;19908;-74
2023/04/22 05:31:40;;;;;;;;;;;;;;;6.66;100.00;100650.13;5223969;28;19967;-74
2023/04/22 05:34:11;;;;;;;;;;;;;;;6.79;100.00;100644.47;5225376;28;19993;-74
2023/04/22 05:36:41;;;;;;;;;;;;;;;6.88;100.00;100654.28;5224057;28;19916;-75
2023/04/22 05:39:12;;;;;;;;;;;;;;;6.98;100.00;100659.56;5225179;28;19991;-74
2023/04/22 05:41:42;;;;;;;;;;;;;;;7.08;100.00;100667.50;5206615;28;19908;-74
2023/04/22 05:44:12;;;;;;;;;;;;;;;7.16;100.00;100663.09;5225277;28;19919;-74
2023/04/22 05:46:43;;;;;;;;;;;;;;;7.24;100.00;100665.03;5223681;28;19908;-74
2023/04/22 05:49:13;;;;;;;;;;;;;;;7.34;100.00;100662.31;5224776;28;20002;-74
2023/04/22 05:51:44;;;;;;;;;;;;;;;7.44;100.00;100647.91;5224532;28;19908;-74
2023/04/22 05:54:14;;;;;;;;;;;;;;;7.61;100.00;100645.41;5224809;28;19908;-74
2023/04/22 05:56:45;;;;;;;;;;;;;;;7.70;100.00;100637.31;5205790;28;19923;-74
2023/04/22 05:59:15;;;;;;;;;;;;;;;7.73;100.00;100634.38;5223370;28;19908;-74
2023/04/22 06:01:46;;;;;;;;;;;;;;;7.86;100.00;100639.31;5224202;28;19920;-74
2023/04/22 06:04:17;;;;;;;;;;;;;;;8.28;100.00;100651.97;5224646;28;19908;-74
2023/04/22 06:06:48;;;;;;;;;;;;;;;8.68;100.00;100659.47;5223449;28;19919;-74
2023/04/22 06:09:20;;;;;;;;;;;;;;;8.85;100.00;100673.78;5224348;28;19949;-74
2023/04/22 06:11:50;;;;;;;;;;;;;;;8.92;100.00;100676.66;5205927;28;19909;-74
2023/04/22 06:14:21;;;;;;;;;;;;;;;9.20;100.00;100671.94;5220763;28;20300;-75
2023/04/22 06:16:52;;;;;;;;;;;;;;;9.58;100.00;100666.00;5223055;28;20006;-75
2023/04/22 06:19:23;;;;;;;;;;;;;;;9.84;100.00;100649.00;5224307;28;20351;-75
2023/04/22 06:21:53;;;;;;;;;;;;;;;10.23;100.00;100640.25;5223765;28;20003;-75
2023/04/22 06:24:23;;;;;;;;;;;;;;;10.55;100.00;100626.84;5206090;28;19908;-75
2023/04/22 06:26:54;;;;;;;;;;;;;;;10.78;100.00;100620.72;5223778;28;19931;-74
2023/04/22 06:29:24;;;;;;;;;;;;;;;11.09;100.00;100607.34;5224802;28;19924;-74
2023/04/22 06:31:55;;;;;;;;;;;;;;;11.35;100.00;100612.44;5205875;28;19909;-74
2023/04/22 06:34:25;;;;;;;;;;;;;;;11.63;100.00;100616.25;5224193;28;19942;-75
2023/04/22 06:36:56;;;;;;;;;;;;;;;11.82;100.00;100636.47;5222727;28;19920;-74
2023/04/22 06:39:26;;;;;;;;;;;;;;;11.65;100.00;100635.75;5224031;28;19912;-74
2023/04/22 06:41:56;;;;;;;;;;;;;;;11.12;100.00;100641.91;5220305;28;19995;-74
2023/04/22 06:44:27;;;;;;;;;;;;;;;10.72;100.00;100640.22;5223776;28;19912;-74
2023/04/22 06:46:58;;;;;;;;;;;;;;;10.91;100.00;100628.25;5222377;28;19909;-74
2023/04/22 06:49:28;;;;;;;;;;;;;;;11.31;100.00;100627.22;5223795;28;20003;-74
2023/04/22 06:51:59;;;;;;;;;;;;;;;11.58;100.00;100629.38;5223704;28;19909;-74
2023/04/22 06:54:30;;;;;;;;;;;;;;;11.91;100.00;100616.59;5206246;28;19913;-74
2023/04/22 06:57:01;;;;;;;;;;;;;;;11.96;100.00;100615.22;5203241;28;19971;-74
2023/04/22 06:59:31;;;;;;;;;;;;;;;11.99;100.00;100598.72;5221832;28;20369;-74
2023/04/22 07:02:01;;;;;;;;;;;;;;;11.85;100.00;100620.00;5223087;28;19909;-74
2023/04/22 07:04:32;;;;;;;;;;;;;;;11.85;100.00;100616.50;5211443;28;19913;-74
2023/04/22 07:07:02;;;;;;;;;;;;;;;11.84;100.00;100612.09;5221705;28;19908;-74
2023/04/22 07:09:34;;;;;;;;;;;;;;;11.95;100.00;100619.75;5222649;28;20011;-74
2023/04/22 07:12:05;;;;;;;;;;;;;;;11.98;100.00;100623.94;5223029;28;19909;-73
2023/04/22 07:14:36;;;;;;;;;;;;;;;12.08;100.00;100622.66;5223305;28;19908;-74
2023/04/22 07:17:09;;;;;;;;;;;;;;;12.02;100.00;100628.75;5221651;28;19965;-74
2023/04/22 07:19:40;;;;;;;;;;;;;;;11.76;100.00;100617.53;5222533;28;19908;-74
2023/04/22 07:22:10;;;;;;;;;;;;;;;11.34;100.00;100613.41;5223095;28;20346;-74
2023/04/22 07:24:41;;;;;;;;;;;;;;;11.24;100.00;100604.75;5223307;28;20388;-74
2023/04/22 07:27:11;;;;;;;;;;;;;;;11.25;100.00;100604.59;5221511;28;19945;-74
2023/04/22 07:29:42;;;;;;;;;;;;;;;11.48;100.00;100607.28;5226226;28;19942;-74
2023/04/22 07:32:12;;;;;;;;;;;;;;;11.73;100.00;100599.06;5223523;28;19909;-74
2023/04/22 07:34:43;;;;;;;;;;;;;;;11.90;100.00;100596.09;5223550;28;19937;-74
2023/04/22 07:37:13;;;;;;;;;;;;;;;12.21;100.00;100600.53;5221765;28;19913;-74
2023/04/22 07:39:46;;;;;;;;;;;;;;;12.69;100.00;100595.63;5223135;28;19912;-74
2023/04/22 07:42:17;;;;;;;;;;;;;;;12.90;100.00;100587.66;5222791;28;19943;-74
2023/04/22 07:44:47;;;;;;;;;;;;;;;13.04;100.00;100583.25;5223060;28;19956;-74
2023/04/22 07:47:18;;;;;;;;;;;;;;;13.04;100.00;100572.47;5222057;28;19913;-74
2023/04/22 07:49:48;;;;;;;;;;;;;;;12.99;100.00;100564.13;5222586;28;19921;-74
2023/04/22 07:52:19;;;;;;;;;;;;;;;12.87;100.00;100560.28;5223052;28;19913;-74
2023/04/22 07:54:50;;;;;;;;;;;;;;;12.65;100.00;100549.44;5208302;28;19908;-74
2023/04/22 07:57:21;;;;;;;;;;;;;;;12.64;100.00;100541.53;5225105;28;20420;-74
2023/04/22 07:59:52;;;;;;;;;;;;;;;12.60;100.00;100530.34;5226630;28;20617;-74
2023/04/22 08:02:22;;;;;;;;;;;;;;;12.61;100.00;100521.22;5227034;28;19909;-74
2023/04/22 08:04:53;;;;;;;;;;;;;;;12.42;100.00;100505.66;5227131;28;19999;-74
2023/04/22 08:07:23;;;;;;;;;;;;;;;12.47;100.00;100515.84;5208168;28;20419;-74
2023/04/22 08:09:55;;;;;;;;;;;;;;;12.49;100.00;100530.78;5226317;28;19954;-74
2023/04/22 08:12:25;;;;;;;;;;;;;;;12.49;100.00;100536.16;5226754;28;19913;-74
2023/04/22 08:14:57;;;;;;;;;;;;;;;12.62;100.00;100533.66;5209648;28;19908;-74
2023/04/22 08:17:27;;;;;;;;;;;;;;;12.76;100.00;100534.66;5225117;28;20384;-74
2023/04/22 08:19:58;;;;;;;;;;;;;;;12.80;100.00;100549.44;5235613;28;19920;-74
2023/04/22 08:22:28;;;;;;;;;;;;;;;12.93;100.00;100559.50;5225987;28;19919;-74
2023/04/22 08:24:58;;;;;;;;;;;;;;;13.59;100.00;100575.59;5225478;28;19958;-74
2023/04/22 08:27:34;;;;;;;;;;;;;;;13.65;100.00;100570.25;5207160;28;20285;-74
2023/04/22 08:30:05;;;;;;;;;;;;;;;14.34;100.00;100569.56;5188375;28;19964;-74
2023/04/22 08:32:36;;;;;;;;;;;;;;;14.76;100.00;100578.59;5226199;28;20281;-74
2023/04/22 08:35:06;;;;;;;;;;;;;;;15.46;100.00;100574.69;5225992;28;19916;-74
2023/04/22 08:37:37;;;;;;;;;;;;;;;16.21;100.00;100569.94;5224590;28;20373;-75
2023/04/22 08:40:07;;;;;;;;;;;;;;;16.09;100.00;100582.47;5207529;28;19916;-74
2023/04/22 08:42:38;;;;;;;;;;;;;;;16.23;100.00;100584.13;5208475;28;19915;-74
2023/04/22 08:45:09;;;;;;;;;;;;;;;16.97;100.00;100577.50;5207628;28;19909;-74
2023/04/22 08:47:40;;;;;;;;;;;;;;;17.28;100.00;100573.19;5224545;28;19916;-75
2023/04/22 08:50:10;;;;;;;;;;;;;;;16.20;100.00;100572.88;5225557;28;20365;-75
2023/04/22 08:52:41;;;;;;;;;;;;;;;16.14;100.00;100574.53;5225807;28;19920;-75
2023/04/22 08:55:12;;;;;;;;;;;;;;;15.42;100.00;100569.88;5225224;28;19915;-75
2023/04/22 08:57:43;;;;;;;;;;;;;;;15.25;100.00;100564.84;5223991;28;19944;-74
2023/04/22 09:00:14;;;;;;;;;;;;;;;15.02;100.00;100567.91;5225592;28;19956;-75
2023/04/22 09:02:45;;;;;;;;;;;;;;;15.28;100.00;100559.03;5225792;28;19916;-75
2023/04/22 09:05:15;;;;;;;;;;;;;;;15.47;100.00;100548.47;5224858;28;19909;-74
2023/04/22 09:07:46;;;;;;;;;;;;;;;15.59;100.00;100554.94;5206478;28;19915;-74
2023/04/22 09:10:16;;;;;;;;;;;;;;;15.30;100.00;100550.72;5206882;28;20380;-75
2023/04/22 09:12:47;;;;;;;;;;;;;;;15.64;100.00;100546.25;5225467;28;19913;-75
2023/04/22 09:15:18;;;;;;;;;;;;;;;16.00;100.00;100553.94;5226372;28;19959;-75
2023/04/22 09:17:50;;;;;;;;;;;;;;;16.13;100.00;100543.13;5223481;28;20004;-74
2023/04/22 09:20:24;;;;;;;;;;;;;;;15.81;100.00;100550.19;5224802;28;19915;-74
2023/04/22 09:22:56;;;;;;;;;;;;;;;15.90;100.00;100550.81;5211802;28;20388;-74
2023/04/22 09:25:26;;;;;;;;;;;;;;;15.83;100.00;100541.88;5224666;28;19909;-74
2023/04/22 09:27:57;;;;;;;;;;;;;;;15.71;100.00;100537.09;5223763;28;19908;-74
2023/04/22 09:30:30;;;;;;;;;;;;;;;15.82;100.00;100524.81;5224509;28;19917;-74
2023/04/22 09:33:01;;;;;;;;;;;;;;;16.07;100.00;100521.50;5225096;28;20273;-74
2023/04/22 09:35:33;;;;;;;;;;;;;;;16.30;100.00;100527.25;5207109;28;19915;-74
2023/04/22 09:38:05;;;;;;;;;;;;;;;15.76;100.00;100520.22;5224460;28;19912;-74
2023/04/22 09:40:36;;;;;;;;;;;;;;;15.50;100.00;100508.31;5225297;28;20414;-74
2023/04/22 09:43:07;;;;;;;;;;;;;;;15.45;100.00;100523.50;5224996;28;19908;-74
2023/04/22 09:45:39;;;;;;;;;;;;;;;14.88;100.00;100538.34;5207155;28;19919;-74
2023/04/22 09:48:11;;;;;;;;;;;;;;;14.96;100.00;100546.25;5223251;28;20007;-74
2023/04/22 09:50:43;;;;;;;;;;;;;;;14.88;100.00;100538.34;5206600;28;19919;-74
2023/04/22 09:53:15;;;;;;;;;;;;;;;14.91;100.00;100535.22;5223966;28;20388;-74
2023/04/22 09:55:47;;;;;;;;;;;;;;;14.85;100.00;100536.84;5224916;28;19991;-74
2023/04/22 09:58:19;;;;;;;;;;;;;;;14.83;100.00;100536.22;5222734;28;19924;-74
2023/04/22 10:00:54;;;;;;;;;;;;;;;14.84;100.00;100542.47;5206522;28;20365;-75
2023/04/22 10:03:25;;;;;;;;;;;;;;;14.63;100.00;100573.94;5206960;28;19909;-76
2023/04/22 10:05:56;;;;;;;;;;;;;;;14.23;100.00;100572.81;5224528;28;19932;-76
2023/04/22 10:08:27;;;;;;;;;;;;;;;13.93;100.00;100566.78;5223159;28;19912;-76
2023/04/22 10:10:57;;;;;;;;;;;;;;;13.88;100.00;100564.66;5223970;28;19909;-76
2023/04/22 10:13:27;;;;;;;;;;;;;;;13.95;100.00;100564.72;5206973;28;19917;-75
2023/04/22 10:15:59;;;;;;;;;;;;;;;14.05;100.00;100559.81;5224573;28;19954;-75
2023/04/22 10:18:30;;;;;;;;;;;;;;;14.11;100.00;100564.44;5222561;28;19921;-75
2023/04/22 10:21:01;;;;;;;;;;;;;;;14.07;100.00;100573.97;5205892;28;19941;-75
2023/04/22 10:23:32;;;;;;;;;;;;;;;14.05;100.00;100573.31;5205491;28;19921;-75
2023/04/22 10:26:04;;;;;;;;;;;;;;;14.01;100.00;100569.34;5224125;28;19913;-76
2023/04/22 10:28:34;;;;;;;;;;;;;;;13.95;100.00;100575.50;5222964;28;19908;-76
2023/04/22 10:31:05;;;;;;;;;;;;;;;13.86;100.00;100591.00;5205958;28;20452;-76
2023/04/22 10:33:37;;;;;;;;;;;;;;;13.69;100.00;100586.88;5223487;28;19915;-76
2023/04/22 10:36:11;;;;;;;;;;;;;;;13.61;100.00;100587.03;5223895;28;19908;-76
2023/04/22 10:39:01;;;;;;;;;;;;;;;13.57;100.00;100583.88;5222642;28;19916;-76
2023/04/22 10:41:32;;;;;;;;;;;;;;;13.57;100.00;100589.28;5205202;28;19909;-76
2023/04/22 10:44:18;;;;;;;;;;;;;;;13.52;100.00;100585.50;5211764;28;20362;-76
2023/04/22 10:46:49;;;;;;;;;;;;;;;13.45;100.00;100580.00;5222719;28;20352;-76
2023/04/22 10:49:21;;;;;;;;;;;;;;;13.46;100.00;100573.63;5223539;28;19915;-76
2023/04/22 10:51:52;;;;;;;;;;;;;;;13.51;100.00;100586.53;5222907;28;20367;-77
2023/04/22 10:54:37;;;;;;;;;;;;;;;13.55;100.00;100591.31;5205394;28;19958;-76
2023/04/22 10:57:08;;;;;;;;;;;;;;;13.60;100.00;100583.47;5211212;28;19913;-76
2023/04/22 10:59:41;;;;;;;;;;;;;;;13.65;100.00;100588.28;5222147;28;19963;-76
2023/04/22 11:02:13;;;;;;;;;;;;;;;13.68;100.00;100583.38;5223527;28;20003;-76
2023/04/22 11:04:44;;;;;;;;;;;;;;;13.71;100.00;100571.38;5223073;28;19963;-76
2023/04/22 11:07:30;;;;;;;;;;;;;;;13.65;100.00;100581.03;5222510;28;20323;-76
2023/04/22 11:10:08;;;;;;;;;;;;;;;13.60;100.00;100567.31;5209881;28;19979;-76
2023/04/22 11:12:40;;;;;;;;;;;;;;;13.65;100.00;100575.66;5223554;28;19938;-76
2023/04/22 11:15:12;;;;;;;;;;;;;;;13.73;100.00;100582.78;5205300;28;20414;-76
2023/04/22 11:17:45;;;;;;;;;;;;;;;13.65;100.00;100581.03;5203756;28;19917;-76
2023/04/22 11:20:16;;;;;;;;;;;;;;;13.70;100.00;100581.31;5204905;28;20555;-76
2023/04/22 11:22:47;;;;;;;;;;;;;;;13.73;100.00;100577.41;5204623;28;19908;-76
2023/04/22 11:25:18;;;;;;;;;;;;;;;13.68;100.00;100587.91;5223136;28;20288;-76
2023/04/22 11:27:49;;;;;;;;;;;;;;;13.61;100.00;100587.03;5221503;28;19909;-77
2023/04/22 11:30:20;;;;;;;;;;;;;;;13.61;100.00;100585.19;5225997;28;19908;-76
2023/04/22 11:32:52;;;;;;;;;;;;;;;13.61;100.00;100584.34;5227386;28;19909;-77
2023/04/22 11:35:23;;;;;;;;;;;;;;;13.54;100.00;100586.13;5227163;28;19916;-76
2023/04/22 11:37:56;;;;;;;;;;;;;;;13.55;100.00;100579.69;5226520;28;19916;-77
2023/04/22 11:40:28;;;;;;;;;;;;;;;13.57;100.00;100588.44;5224181;28;19920;-77
2023/04/22 11:42:59;;;;;;;;;;;;;;;13.64;100.00;100589.34;5226970;28;20334;-76
2023/04/22 11:45:30;;;;;;;;;;;;;;;13.64;100.00;100600.09;5188065;28;20366;-76
2023/04/22 11:48:01;;;;;;;;;;;;;;;13.50;100.00;100599.13;5207934;28;19909;-76
2023/04/22 11:50:33;;;;;;;;;;;;;;;13.52;100.00;100590.88;5227821;28;19916;-76
2023/04/22 11:53:12;;;;;;;;;;;;;;;13.59;100.00;100592.59;5222056;28;19912;-76
2023/04/22 11:55:45;;;;;;;;;;;;;;;13.35;100.00;100601.88;5210051;28;19935;-76
2023/04/22 11:58:18;;;;;;;;;;;;;;;13.37;100.00;100596.31;5210634;28;20007;-76
2023/04/22 12:00:50;;;;;;;;;;;;;;;13.37;100.00;100589.06;5226088;28;19921;-76
2023/04/22 12:03:23;;;;;;;;;;;;;;;13.23;100.00;100598.03;5226017;28;20010;-76
2023/04/22 12:05:54;;;;;;;;;;;;;;;13.24;100.00;100596.16;5208981;28;19940;-76
2023/04/22 12:08:29;;;;;;;;;;;;;;;13.27;100.00;100601.19;5225567;28;20027;-76
2023/04/22 12:11:01;;;;;;;;;;;;;;;13.37;100.00;100605.22;5226388;28;20377;-76
2023/04/22 12:13:33;;;;;;;;;;;;;;;13.31;100.00;100597.09;5226217;28;19923;-76
2023/04/22 12:16:05;;;;;;;;;;;;;;;13.25;100.00;100606.72;5226756;28;20431;-76
2023/04/22 12:18:38;;;;;;;;;;;;;;;13.30;100.00;100615.06;5226042;28;19962;-76
2023/04/22 12:21:11;;;;;;;;;;;;;;;13.33;100.00;100605.81;5226122;28;19959;-76
2023/04/22 12:23:43;;;;;;;;;;;;;;;13.31;100.00;100607.84;5226465;28;20359;-76
2023/04/22 12:26:14;;;;;;;;;;;;;;;13.28;100.00;100613.63;5225721;28;19916;-76
2023/04/22 12:28:45;;;;;;;;;;;;;;;13.31;100.00;100618.63;5225908;28;19979;-76
2023/04/22 12:31:16;;;;;;;;;;;;;;;13.32;100.00;100618.44;5208251;28;19909;-76
2023/04/22 12:33:46;;;;;;;;;;;;;;;13.35;100.00;100612.66;5226337;28;19912;-76
2023/04/22 12:36:19;;;;;;;;;;;;;;;13.35;100.00;100614.50;5226020;28;19915;-76
2023/04/22 12:38:50;;;;;;;;;;;;;;;13.39;100.00;100613.94;5225837;28;20019;-77
2023/04/22 12:41:22;;;;;;;;;;;;;;;13.36;100.00;100608.97;5225457;28;19951;-76
2023/04/22 12:43:54;;;;;;;;;;;;;;;13.40;100.00;100610.25;5225037;28;20369;-76
2023/04/22 12:46:24;;;;;;;;;;;;;;;13.43;100.00;100612.53;5225696;28;19909;-76
2023/04/22 12:48:55;;;;;;;;;;;;;;;13.48;100.00;100612.81;5226218;28;19909;-76
2023/04/22 12:51:26;;;;;;;;;;;;;;;13.59;100.00;100616.03;5202600;28;19916;-75